sensor_id;sensor_type;location;lat;lon;timestamp;P1;durP1;ratioP1;P2;durP2;ratioP2
85243;SDS011;75643;56.928;41.094;2024-02-26T00:02:23;1.98;;;1.23;;
85243;SDS011;75643;56.928;41.094;2024-02-26T00:04:49;2.97;;;1.10;;
85243;SDS011;75643;56.928;41.094;2024-02-26T00:07:16;1.00;;;0.90;;
85243;SDS011;75643;56.928;41.094;2024-02-26T00:09:42;1.98;;;1.00;;
85243;SDS011;75643;56.928;41.094;2024-02-26T00:12:08;2.35;;;0.90;;
85243;SDS011;75643;56.928;41.094;2024-02-26T00:14:35;1.45;;;0.93;;
85243;SDS011;75643;56.928;41.094;2024-02-26T00:17:01;4.05;;;1.40;;
85243;SDS011;75643;56.928;41.094;2024-02-26T00:19:28;1.00;;;0.88;;
85243;SDS011;75643;56.928;41.094;2024-02-26T00:21:54;1.60;;;0.90;;
85243;SDS011;75643;56.928;41.094;2024-02-26T00:24:21;1.25;;;1.05;;
85243;SDS011;75643;56.928;41.094;2024-02-26T00:26:47;1.95;;;0.75;;
85243;SDS011;75643;56.928;41.094;2024-02-26T00:29:18;2.20;;;1.05;;
85243;SDS011;75643;56.928;41.094;2024-02-26T00:31:45;1.77;;;1.40;;
85243;SDS011;75643;56.928;41.094;2024-02-26T00:34:11;2.33;;;1.30;;
85243;SDS011;75643;56.928;41.094;2024-02-26T00:36:37;1.42;;;0.95;;
85243;SDS011;75643;56.928;41.094;2024-02-26T00:39:03;1.63;;;1.10;;
85243;SDS011;75643;56.928;41.094;2024-02-26T00:41:30;1.10;;;0.98;;
85243;SDS011;75643;56.928;41.094;2024-02-26T00:43:56;1.17;;;1.08;;
85243;SDS011;75643;56.928;41.094;2024-02-26T00:46:22;0.90;;;0.90;;
85243;SDS011;75643;56.928;41.094;2024-02-26T00:48:48;2.08;;;1.23;;
85243;SDS011;75643;56.928;41.094;2024-02-26T00:51:14;2.05;;;1.42;;
85243;SDS011;75643;56.928;41.094;2024-02-26T00:53:41;1.88;;;0.90;;
85243;SDS011;75643;56.928;41.094;2024-02-26T00:56:07;1.67;;;1.23;;
85243;SDS011;75643;56.928;41.094;2024-02-26T00:58:33;2.28;;;1.15;;
85243;SDS011;75643;56.928;41.094;2024-02-26T01:01:00;3.28;;;1.15;;
85243;SDS011;75643;56.928;41.094;2024-02-26T01:03:26;3.20;;;0.70;;
85243;SDS011;75643;56.928;41.094;2024-02-26T01:05:52;1.80;;;0.98;;
85243;SDS011;75643;56.928;41.094;2024-02-26T01:08:18;1.42;;;1.10;;
85243;SDS011;75643;56.928;41.094;2024-02-26T01:10:44;1.60;;;1.20;;
85243;SDS011;75643;56.928;41.094;2024-02-26T01:13:10;2.17;;;1.20;;
85243;SDS011;75643;56.928;41.094;2024-02-26T01:15:36;1.17;;;0.90;;
85243;SDS011;75643;56.928;41.094;2024-02-26T01:18:02;2.88;;;1.17;;
85243;SDS011;75643;56.928;41.094;2024-02-26T01:20:29;1.90;;;1.05;;
85243;SDS011;75643;56.928;41.094;2024-02-26T01:22:55;1.25;;;1.00;;
85243;SDS011;75643;56.928;41.094;2024-02-26T01:25:21;2.42;;;1.00;;
85243;SDS011;75643;56.928;41.094;2024-02-26T01:27:47;1.63;;;0.90;;
85243;SDS011;75643;56.928;41.094;2024-02-26T01:30:15;2.63;;;1.33;;
85243;SDS011;75643;56.928;41.094;2024-02-26T01:32:42;1.40;;;1.02;;
85243;SDS011;75643;56.928;41.094;2024-02-26T01:35:08;3.22;;;1.48;;
85243;SDS011;75643;56.928;41.094;2024-02-26T01:37:37;3.58;;;1.20;;
85243;SDS011;75643;56.928;41.094;2024-02-26T01:40:04;2.78;;;1.60;;
85243;SDS011;75643;56.928;41.094;2024-02-26T01:42:32;1.00;;;0.77;;
85243;SDS011;75643;56.928;41.094;2024-02-26T01:44:59;1.67;;;1.20;;
85243;SDS011;75643;56.928;41.094;2024-02-26T01:47:25;1.52;;;1.10;;
85243;SDS011;75643;56.928;41.094;2024-02-26T01:49:53;2.38;;;1.20;;
85243;SDS011;75643;56.928;41.094;2024-02-26T01:52:20;3.33;;;1.10;;
85243;SDS011;75643;56.928;41.094;2024-02-26T01:54:47;2.85;;;1.30;;
85243;SDS011;75643;56.928;41.094;2024-02-26T01:57:15;2.00;;;1.42;;
85243;SDS011;75643;56.928;41.094;2024-02-26T01:59:42;1.33;;;1.20;;
85243;SDS011;75643;56.928;41.094;2024-02-26T02:02:10;2.70;;;1.20;;
85243;SDS011;75643;56.928;41.094;2024-02-26T02:04:37;2.10;;;0.85;;
85243;SDS011;75643;56.928;41.094;2024-02-26T02:07:04;2.88;;;1.33;;
85243;SDS011;75643;56.928;41.094;2024-02-26T02:09:30;1.25;;;0.90;;
85243;SDS011;75643;56.928;41.094;2024-02-26T02:11:57;3.90;;;1.67;;
85243;SDS011;75643;56.928;41.094;2024-02-26T02:14:24;2.38;;;1.23;;
85243;SDS011;75643;56.928;41.094;2024-02-26T02:16:51;1.55;;;1.00;;
85243;SDS011;75643;56.928;41.094;2024-02-26T02:19:17;1.63;;;0.98;;
85243;SDS011;75643;56.928;41.094;2024-02-26T02:21:43;2.10;;;1.42;;
85243;SDS011;75643;56.928;41.094;2024-02-26T02:24:10;2.92;;;1.60;;
85243;SDS011;75643;56.928;41.094;2024-02-26T02:26:36;1.83;;;1.10;;
85243;SDS011;75643;56.928;41.094;2024-02-26T02:29:02;1.33;;;1.20;;
85243;SDS011;75643;56.928;41.094;2024-02-26T02:31:29;2.78;;;1.10;;
85243;SDS011;75643;56.928;41.094;2024-02-26T02:33:56;2.53;;;1.55;;
85243;SDS011;75643;56.928;41.094;2024-02-26T02:36:22;3.90;;;1.77;;
85243;SDS011;75643;56.928;41.094;2024-02-26T02:38:49;2.17;;;1.10;;
85243;SDS011;75643;56.928;41.094;2024-02-26T02:41:16;2.63;;;1.50;;
85243;SDS011;75643;56.928;41.094;2024-02-26T02:43:43;4.65;;;1.63;;
85243;SDS011;75643;56.928;41.094;2024-02-26T02:46:09;2.78;;;1.58;;
85243;SDS011;75643;56.928;41.094;2024-02-26T02:48:37;1.63;;;1.52;;
85243;SDS011;75643;56.928;41.094;2024-02-26T02:51:04;1.98;;;1.30;;
85243;SDS011;75643;56.928;41.094;2024-02-26T02:53:30;2.45;;;1.30;;
85243;SDS011;75643;56.928;41.094;2024-02-26T02:55:57;2.58;;;1.20;;
85243;SDS011;75643;56.928;41.094;2024-02-26T02:58:23;2.63;;;1.67;;
85243;SDS011;75643;56.928;41.094;2024-02-26T03:00:49;1.50;;;1.40;;
85243;SDS011;75643;56.928;41.094;2024-02-26T03:03:15;2.65;;;1.20;;
85243;SDS011;75643;56.928;41.094;2024-02-26T03:05:41;4.10;;;1.45;;
85243;SDS011;75643;56.928;41.094;2024-02-26T03:08:08;2.30;;;1.65;;
85243;SDS011;75643;56.928;41.094;2024-02-26T03:10:35;1.75;;;1.35;;
85243;SDS011;75643;56.928;41.094;2024-02-26T03:13:01;3.17;;;1.42;;
85243;SDS011;75643;56.928;41.094;2024-02-26T03:15:27;3.20;;;1.75;;
85243;SDS011;75643;56.928;41.094;2024-02-26T03:17:53;2.67;;;1.33;;
85243;SDS011;75643;56.928;41.094;2024-02-26T03:20:19;1.98;;;1.25;;
85243;SDS011;75643;56.928;41.094;2024-02-26T03:22:45;2.95;;;1.30;;
85243;SDS011;75643;56.928;41.094;2024-02-26T03:25:12;2.40;;;1.33;;
85243;SDS011;75643;56.928;41.094;2024-02-26T03:27:38;3.85;;;1.83;;
85243;SDS011;75643;56.928;41.094;2024-02-26T03:30:04;3.47;;;1.50;;
85243;SDS011;75643;56.928;41.094;2024-02-26T03:32:31;2.30;;;1.30;;
85243;SDS011;75643;56.928;41.094;2024-02-26T03:34:57;4.72;;;2.15;;
85243;SDS011;75643;56.928;41.094;2024-02-26T03:37:23;8.57;;;3.25;;
85243;SDS011;75643;56.928;41.094;2024-02-26T03:39:50;5.25;;;2.08;;
85243;SDS011;75643;56.928;41.094;2024-02-26T03:42:16;3.45;;;1.73;;
85243;SDS011;75643;56.928;41.094;2024-02-26T03:44:42;2.65;;;1.70;;
85243;SDS011;75643;56.928;41.094;2024-02-26T03:47:09;3.60;;;1.70;;
85243;SDS011;75643;56.928;41.094;2024-02-26T03:49:35;2.30;;;1.45;;
85243;SDS011;75643;56.928;41.094;2024-02-26T03:52:01;4.53;;;1.90;;
85243;SDS011;75643;56.928;41.094;2024-02-26T03:54:27;3.17;;;1.75;;
85243;SDS011;75643;56.928;41.094;2024-02-26T03:56:53;3.15;;;1.65;;
85243;SDS011;75643;56.928;41.094;2024-02-26T03:59:20;2.70;;;1.58;;
85243;SDS011;75643;56.928;41.094;2024-02-26T04:01:47;3.72;;;2.38;;
85243;SDS011;75643;56.928;41.094;2024-02-26T04:04:14;3.50;;;2.13;;
85243;SDS011;75643;56.928;41.094;2024-02-26T04:06:40;2.25;;;1.70;;
85243;SDS011;75643;56.928;41.094;2024-02-26T04:09:12;3.80;;;1.45;;
85243;SDS011;75643;56.928;41.094;2024-02-26T04:11:41;3.90;;;2.13;;
85243;SDS011;75643;56.928;41.094;2024-02-26T04:14:10;3.72;;;1.50;;
85243;SDS011;75643;56.928;41.094;2024-02-26T04:16:38;2.75;;;1.98;;
85243;SDS011;75643;56.928;41.094;2024-02-26T04:19:04;6.57;;;1.42;;
85243;SDS011;75643;56.928;41.094;2024-02-26T04:21:30;2.63;;;1.70;;
85243;SDS011;75643;56.928;41.094;2024-02-26T04:23:57;3.20;;;1.85;;
85243;SDS011;75643;56.928;41.094;2024-02-26T04:26:26;2.90;;;1.73;;
85243;SDS011;75643;56.928;41.094;2024-02-26T04:28:53;4.07;;;1.45;;
85243;SDS011;75643;56.928;41.094;2024-02-26T04:31:22;2.63;;;1.42;;
85243;SDS011;75643;56.928;41.094;2024-02-26T04:33:48;4.13;;;1.60;;
85243;SDS011;75643;56.928;41.094;2024-02-26T04:36:14;6.43;;;1.92;;
85243;SDS011;75643;56.928;41.094;2024-02-26T04:38:43;3.47;;;2.08;;
85243;SDS011;75643;56.928;41.094;2024-02-26T04:41:10;3.78;;;2.03;;
85243;SDS011;75643;56.928;41.094;2024-02-26T04:43:36;3.13;;;1.55;;
85243;SDS011;75643;56.928;41.094;2024-02-26T04:46:07;2.22;;;1.88;;
85243;SDS011;75643;56.928;41.094;2024-02-26T04:48:34;2.70;;;1.88;;
85243;SDS011;75643;56.928;41.094;2024-02-26T04:51:01;4.65;;;1.80;;
85243;SDS011;75643;56.928;41.094;2024-02-26T04:53:28;7.10;;;2.25;;
85243;SDS011;75643;56.928;41.094;2024-02-26T04:55:54;2.42;;;2.05;;
85243;SDS011;75643;56.928;41.094;2024-02-26T04:58:20;4.45;;;2.08;;
85243;SDS011;75643;56.928;41.094;2024-02-26T05:00:47;3.42;;;2.03;;
85243;SDS011;75643;56.928;41.094;2024-02-26T05:03:13;2.55;;;1.60;;
85243;SDS011;75643;56.928;41.094;2024-02-26T05:05:42;5.78;;;1.75;;
85243;SDS011;75643;56.928;41.094;2024-02-26T05:08:09;4.03;;;2.00;;
85243;SDS011;75643;56.928;41.094;2024-02-26T05:10:35;2.83;;;1.88;;
85243;SDS011;75643;56.928;41.094;2024-02-26T05:13:05;2.45;;;1.45;;
85243;SDS011;75643;56.928;41.094;2024-02-26T05:15:31;4.80;;;2.08;;
85243;SDS011;75643;56.928;41.094;2024-02-26T05:17:58;3.20;;;1.70;;
85243;SDS011;75643;56.928;41.094;2024-02-26T05:20:24;4.80;;;2.72;;
85243;SDS011;75643;56.928;41.094;2024-02-26T05:22:52;4.57;;;3.10;;
85243;SDS011;75643;56.928;41.094;2024-02-26T05:25:18;8.32;;;3.80;;
85243;SDS011;75643;56.928;41.094;2024-02-26T05:27:44;7.07;;;2.47;;
85243;SDS011;75643;56.928;41.094;2024-02-26T05:30:10;6.43;;;3.00;;
85243;SDS011;75643;56.928;41.094;2024-02-26T05:32:37;12.85;;;6.13;;
85243;SDS011;75643;56.928;41.094;2024-02-26T05:35:03;8.40;;;4.40;;
85243;SDS011;75643;56.928;41.094;2024-02-26T05:37:30;5.13;;;3.90;;
85243;SDS011;75643;56.928;41.094;2024-02-26T05:39:57;4.68;;;2.75;;
85243;SDS011;75643;56.928;41.094;2024-02-26T05:42:24;14.45;;;4.63;;
85243;SDS011;75643;56.928;41.094;2024-02-26T05:44:50;5.22;;;2.60;;
85243;SDS011;75643;56.928;41.094;2024-02-26T05:47:16;10.20;;;4.18;;
85243;SDS011;75643;56.928;41.094;2024-02-26T05:49:43;6.55;;;2.92;;
85243;SDS011;75643;56.928;41.094;2024-02-26T05:52:09;4.93;;;2.30;;
85243;SDS011;75643;56.928;41.094;2024-02-26T05:54:35;6.82;;;2.92;;
85243;SDS011;75643;56.928;41.094;2024-02-26T05:57:02;5.00;;;2.13;;
85243;SDS011;75643;56.928;41.094;2024-02-26T05:59:28;5.60;;;2.75;;
85243;SDS011;75643;56.928;41.094;2024-02-26T06:01:55;7.07;;;2.00;;
85243;SDS011;75643;56.928;41.094;2024-02-26T06:04:21;4.88;;;2.35;;
85243;SDS011;75643;56.928;41.094;2024-02-26T06:06:47;6.78;;;2.88;;
85243;SDS011;75643;56.928;41.094;2024-02-26T06:09:13;4.25;;;2.13;;
85243;SDS011;75643;56.928;41.094;2024-02-26T06:11:40;6.13;;;2.28;;
85243;SDS011;75643;56.928;41.094;2024-02-26T06:14:06;2.50;;;1.85;;
85243;SDS011;75643;56.928;41.094;2024-02-26T06:16:33;10.38;;;3.83;;
85243;SDS011;75643;56.928;41.094;2024-02-26T06:19:00;5.65;;;2.28;;
85243;SDS011;75643;56.928;41.094;2024-02-26T06:21:27;6.25;;;2.72;;
85243;SDS011;75643;56.928;41.094;2024-02-26T06:23:53;5.03;;;2.22;;
85243;SDS011;75643;56.928;41.094;2024-02-26T06:26:20;4.65;;;2.38;;
85243;SDS011;75643;56.928;41.094;2024-02-26T06:28:46;6.50;;;2.47;;
85243;SDS011;75643;56.928;41.094;2024-02-26T06:31:13;5.40;;;2.35;;
85243;SDS011;75643;56.928;41.094;2024-02-26T06:33:39;4.15;;;2.50;;
85243;SDS011;75643;56.928;41.094;2024-02-26T06:36:06;8.20;;;1.92;;
85243;SDS011;75643;56.928;41.094;2024-02-26T06:38:33;4.80;;;2.05;;
85243;SDS011;75643;56.928;41.094;2024-02-26T06:40:59;4.00;;;2.05;;
85243;SDS011;75643;56.928;41.094;2024-02-26T06:43:25;6.70;;;2.15;;
85243;SDS011;75643;56.928;41.094;2024-02-26T06:45:52;7.55;;;2.40;;
85243;SDS011;75643;56.928;41.094;2024-02-26T06:48:18;5.63;;;2.53;;
85243;SDS011;75643;56.928;41.094;2024-02-26T06:50:44;5.13;;;2.60;;
85243;SDS011;75643;56.928;41.094;2024-02-26T06:53:11;5.75;;;2.50;;
85243;SDS011;75643;56.928;41.094;2024-02-26T06:55:37;4.13;;;2.05;;
85243;SDS011;75643;56.928;41.094;2024-02-26T06:58:06;3.80;;;1.98;;
85243;SDS011;75643;56.928;41.094;2024-02-26T07:00:32;4.18;;;1.85;;
85243;SDS011;75643;56.928;41.094;2024-02-26T07:02:58;5.80;;;2.60;;
85243;SDS011;75643;56.928;41.094;2024-02-26T07:05:24;4.85;;;2.33;;
85243;SDS011;75643;56.928;41.094;2024-02-26T07:07:50;4.55;;;2.28;;
85243;SDS011;75643;56.928;41.094;2024-02-26T07:10:18;5.20;;;2.22;;
85243;SDS011;75643;56.928;41.094;2024-02-26T07:12:44;4.45;;;2.50;;
85243;SDS011;75643;56.928;41.094;2024-02-26T07:15:10;6.30;;;1.88;;
85243;SDS011;75643;56.928;41.094;2024-02-26T07:17:36;3.45;;;2.20;;
85243;SDS011;75643;56.928;41.094;2024-02-26T07:20:03;7.00;;;2.67;;
85243;SDS011;75643;56.928;41.094;2024-02-26T07:22:35;4.85;;;2.10;;
85243;SDS011;75643;56.928;41.094;2024-02-26T07:25:01;2.58;;;1.90;;
85243;SDS011;75643;56.928;41.094;2024-02-26T07:27:28;3.63;;;1.98;;
85243;SDS011;75643;56.928;41.094;2024-02-26T07:29:54;3.75;;;2.63;;
85243;SDS011;75643;56.928;41.094;2024-02-26T07:32:20;2.75;;;2.15;;
85243;SDS011;75643;56.928;41.094;2024-02-26T07:34:48;3.97;;;2.20;;
85243;SDS011;75643;56.928;41.094;2024-02-26T07:37:14;6.60;;;2.88;;
85243;SDS011;75643;56.928;41.094;2024-02-26T07:39:40;5.80;;;2.60;;
85243;SDS011;75643;56.928;41.094;2024-02-26T07:42:07;4.93;;;1.92;;
85243;SDS011;75643;56.928;41.094;2024-02-26T07:44:34;3.00;;;1.45;;
85243;SDS011;75643;56.928;41.094;2024-02-26T07:47:00;5.45;;;1.98;;
85243;SDS011;75643;56.928;41.094;2024-02-26T07:49:27;6.22;;;2.50;;
85243;SDS011;75643;56.928;41.094;2024-02-26T07:51:53;3.85;;;2.13;;
85243;SDS011;75643;56.928;41.094;2024-02-26T07:54:20;2.40;;;1.95;;
85243;SDS011;75643;56.928;41.094;2024-02-26T07:56:46;5.50;;;2.22;;
85243;SDS011;75643;56.928;41.094;2024-02-26T07:59:13;4.50;;;2.15;;
85243;SDS011;75643;56.928;41.094;2024-02-26T08:01:40;4.95;;;1.77;;
85243;SDS011;75643;56.928;41.094;2024-02-26T08:04:07;6.13;;;3.20;;
85243;SDS011;75643;56.928;41.094;2024-02-26T08:06:33;5.20;;;2.00;;
85243;SDS011;75643;56.928;41.094;2024-02-26T08:08:59;6.80;;;3.35;;
85243;SDS011;75643;56.928;41.094;2024-02-26T08:11:25;3.88;;;2.38;;
85243;SDS011;75643;56.928;41.094;2024-02-26T08:13:51;3.80;;;2.53;;
85243;SDS011;75643;56.928;41.094;2024-02-26T08:16:17;6.07;;;3.25;;
85243;SDS011;75643;56.928;41.094;2024-02-26T08:18:43;4.32;;;2.55;;
85243;SDS011;75643;56.928;41.094;2024-02-26T08:21:10;5.93;;;2.55;;
85243;SDS011;75643;56.928;41.094;2024-02-26T08:23:36;5.68;;;2.72;;
85243;SDS011;75643;56.928;41.094;2024-02-26T08:26:03;3.58;;;2.17;;
85243;SDS011;75643;56.928;41.094;2024-02-26T08:28:33;3.78;;;2.42;;
85243;SDS011;75643;56.928;41.094;2024-02-26T08:30:59;3.47;;;2.00;;
85243;SDS011;75643;56.928;41.094;2024-02-26T08:33:25;4.18;;;2.17;;
85243;SDS011;75643;56.928;41.094;2024-02-26T08:35:51;3.20;;;2.13;;
85243;SDS011;75643;56.928;41.094;2024-02-26T08:38:18;5.00;;;1.83;;
85243;SDS011;75643;56.928;41.094;2024-02-26T08:40:44;2.67;;;1.63;;
85243;SDS011;75643;56.928;41.094;2024-02-26T08:43:10;5.40;;;2.42;;
85243;SDS011;75643;56.928;41.094;2024-02-26T08:45:37;7.43;;;2.75;;
85243;SDS011;75643;56.928;41.094;2024-02-26T08:48:03;5.40;;;2.17;;
85243;SDS011;75643;56.928;41.094;2024-02-26T08:50:29;4.55;;;2.83;;
85243;SDS011;75643;56.928;41.094;2024-02-26T08:52:55;3.78;;;2.42;;
85243;SDS011;75643;56.928;41.094;2024-02-26T08:55:22;7.03;;;4.15;;
85243;SDS011;75643;56.928;41.094;2024-02-26T08:57:49;4.78;;;2.13;;
85243;SDS011;75643;56.928;41.094;2024-02-26T09:00:15;5.65;;;2.28;;
85243;SDS011;75643;56.928;41.094;2024-02-26T09:02:43;8.15;;;2.38;;
85243;SDS011;75643;56.928;41.094;2024-02-26T09:05:09;4.13;;;2.33;;
85243;SDS011;75643;56.928;41.094;2024-02-26T09:07:36;4.60;;;2.80;;
85243;SDS011;75643;56.928;41.094;2024-02-26T09:10:02;3.40;;;2.47;;
85243;SDS011;75643;56.928;41.094;2024-02-26T09:12:30;5.05;;;2.60;;
85243;SDS011;75643;56.928;41.094;2024-02-26T09:14:56;7.40;;;2.25;;
85243;SDS011;75643;56.928;41.094;2024-02-26T09:17:23;3.83;;;2.28;;
85243;SDS011;75643;56.928;41.094;2024-02-26T09:19:49;5.63;;;2.55;;
85243;SDS011;75643;56.928;41.094;2024-02-26T09:22:15;3.88;;;2.13;;
85243;SDS011;75643;56.928;41.094;2024-02-26T09:24:41;5.75;;;2.70;;
85243;SDS011;75643;56.928;41.094;2024-02-26T09:27:07;4.03;;;1.98;;
85243;SDS011;75643;56.928;41.094;2024-02-26T09:29:35;2.83;;;1.73;;
85243;SDS011;75643;56.928;41.094;2024-02-26T09:32:01;5.78;;;2.40;;
85243;SDS011;75643;56.928;41.094;2024-02-26T09:34:28;5.25;;;2.05;;
85243;SDS011;75643;56.928;41.094;2024-02-26T09:36:54;4.25;;;2.17;;
85243;SDS011;75643;56.928;41.094;2024-02-26T09:39:20;9.68;;;2.50;;
85243;SDS011;75643;56.928;41.094;2024-02-26T09:41:48;9.02;;;2.33;;
85243;SDS011;75643;56.928;41.094;2024-02-26T09:44:18;4.13;;;2.50;;
85243;SDS011;75643;56.928;41.094;2024-02-26T09:46:48;5.78;;;2.55;;
85243;SDS011;75643;56.928;41.094;2024-02-26T09:49:18;6.03;;;2.05;;
85243;SDS011;75643;56.928;41.094;2024-02-26T09:51:47;5.75;;;2.47;;
85243;SDS011;75643;56.928;41.094;2024-02-26T09:54:16;3.53;;;2.22;;
85243;SDS011;75643;56.928;41.094;2024-02-26T09:56:42;3.88;;;2.42;;
85243;SDS011;75643;56.928;41.094;2024-02-26T09:59:13;4.07;;;2.03;;
85243;SDS011;75643;56.928;41.094;2024-02-26T10:01:42;6.97;;;2.60;;
85243;SDS011;75643;56.928;41.094;2024-02-26T10:04:10;3.35;;;2.13;;
85243;SDS011;75643;56.928;41.094;2024-02-26T10:06:37;6.03;;;2.63;;
85243;SDS011;75643;56.928;41.094;2024-02-26T10:09:03;5.70;;;2.65;;
85243;SDS011;75643;56.928;41.094;2024-02-26T10:11:31;4.70;;;2.70;;
85243;SDS011;75643;56.928;41.094;2024-02-26T10:13:58;3.40;;;2.13;;
85243;SDS011;75643;56.928;41.094;2024-02-26T10:16:25;3.97;;;2.40;;
85243;SDS011;75643;56.928;41.094;2024-02-26T10:18:52;6.68;;;3.42;;
85243;SDS011;75643;56.928;41.094;2024-02-26T10:21:22;4.55;;;2.30;;
85243;SDS011;75643;56.928;41.094;2024-02-26T10:23:48;5.13;;;2.65;;
85243;SDS011;75643;56.928;41.094;2024-02-26T10:26:16;5.50;;;2.28;;
85243;SDS011;75643;56.928;41.094;2024-02-26T10:28:43;4.28;;;2.25;;
85243;SDS011;75643;56.928;41.094;2024-02-26T10:31:10;5.68;;;2.28;;
85243;SDS011;75643;56.928;41.094;2024-02-26T10:33:38;6.07;;;2.40;;
85243;SDS011;75643;56.928;41.094;2024-02-26T10:36:05;3.22;;;2.15;;
85243;SDS011;75643;56.928;41.094;2024-02-26T10:38:34;5.30;;;2.65;;
85243;SDS011;75643;56.928;41.094;2024-02-26T10:41:02;5.03;;;2.15;;
85243;SDS011;75643;56.928;41.094;2024-02-26T10:43:48;4.75;;;1.98;;
85243;SDS011;75643;56.928;41.094;2024-02-26T10:46:14;4.30;;;2.28;;
85243;SDS011;75643;56.928;41.094;2024-02-26T10:48:44;6.10;;;3.03;;
85243;SDS011;75643;56.928;41.094;2024-02-26T10:51:16;3.28;;;1.80;;
85243;SDS011;75643;56.928;41.094;2024-02-26T10:53:48;6.72;;;2.22;;
85243;SDS011;75643;56.928;41.094;2024-02-26T10:56:19;4.57;;;2.22;;
85243;SDS011;75643;56.928;41.094;2024-02-26T10:58:47;3.50;;;2.20;;
85243;SDS011;75643;56.928;41.094;2024-02-26T11:01:14;3.70;;;1.70;;
85243;SDS011;75643;56.928;41.094;2024-02-26T11:03:41;3.42;;;1.85;;
85243;SDS011;75643;56.928;41.094;2024-02-26T11:06:08;4.03;;;2.20;;
85243;SDS011;75643;56.928;41.094;2024-02-26T11:08:36;4.93;;;2.40;;
85243;SDS011;75643;56.928;41.094;2024-02-26T11:11:03;6.13;;;2.70;;
85243;SDS011;75643;56.928;41.094;2024-02-26T11:13:31;6.20;;;2.30;;
85243;SDS011;75643;56.928;41.094;2024-02-26T11:15:57;4.40;;;2.38;;
85243;SDS011;75643;56.928;41.094;2024-02-26T11:18:25;3.45;;;2.25;;
85243;SDS011;75643;56.928;41.094;2024-02-26T11:20:54;5.32;;;2.22;;
85243;SDS011;75643;56.928;41.094;2024-02-26T11:23:22;6.15;;;2.38;;
85243;SDS011;75643;56.928;41.094;2024-02-26T11:25:49;3.28;;;2.22;;
85243;SDS011;75643;56.928;41.094;2024-02-26T11:28:18;2.80;;;2.05;;
85243;SDS011;75643;56.928;41.094;2024-02-26T11:30:48;3.75;;;1.73;;
85243;SDS011;75643;56.928;41.094;2024-02-26T11:33:15;8.57;;;2.35;;
85243;SDS011;75643;56.928;41.094;2024-02-26T11:35:42;5.32;;;2.38;;
85243;SDS011;75643;56.928;41.094;2024-02-26T11:38:09;3.72;;;2.03;;
85243;SDS011;75643;56.928;41.094;2024-02-26T11:40:46;3.30;;;2.25;;
85243;SDS011;75643;56.928;41.094;2024-02-26T11:43:13;4.15;;;2.22;;
85243;SDS011;75643;56.928;41.094;2024-02-26T11:48:11;4.68;;;2.30;;
85243;SDS011;75643;56.928;41.094;2024-02-26T11:50:41;4.38;;;2.33;;
85243;SDS011;75643;56.928;41.094;2024-02-26T11:53:22;5.03;;;2.03;;
85243;SDS011;75643;56.928;41.094;2024-02-26T12:01:40;3.58;;;2.08;;
85243;SDS011;75643;56.928;41.094;2024-02-26T12:04:26;3.10;;;1.70;;
85243;SDS011;75643;56.928;41.094;2024-02-26T12:06:56;3.35;;;1.92;;
85243;SDS011;75643;56.928;41.094;2024-02-26T12:09:36;5.45;;;2.30;;
85243;SDS011;75643;56.928;41.094;2024-02-26T12:12:05;5.25;;;2.00;;
85243;SDS011;75643;56.928;41.094;2024-02-26T12:14:34;5.30;;;2.00;;
85243;SDS011;75643;56.928;41.094;2024-02-26T12:17:03;6.97;;;2.42;;
85243;SDS011;75643;56.928;41.094;2024-02-26T12:19:35;3.33;;;1.67;;
85243;SDS011;75643;56.928;41.094;2024-02-26T12:22:02;5.72;;;3.25;;
85243;SDS011;75643;56.928;41.094;2024-02-26T12:24:30;2.78;;;1.50;;
85243;SDS011;75643;56.928;41.094;2024-02-26T12:26:57;3.35;;;2.03;;
85243;SDS011;75643;56.928;41.094;2024-02-26T12:29:24;5.38;;;1.95;;
85243;SDS011;75643;56.928;41.094;2024-02-26T12:31:50;3.15;;;1.35;;
85243;SDS011;75643;56.928;41.094;2024-02-26T12:34:17;3.58;;;1.73;;
85243;SDS011;75643;56.928;41.094;2024-02-26T12:36:43;5.43;;;1.88;;
85243;SDS011;75643;56.928;41.094;2024-02-26T12:39:10;3.90;;;2.00;;
85243;SDS011;75643;56.928;41.094;2024-02-26T12:41:37;4.97;;;1.73;;
85243;SDS011;75643;56.928;41.094;2024-02-26T12:44:05;4.22;;;1.50;;
85243;SDS011;75643;56.928;41.094;2024-02-26T12:46:32;4.15;;;1.67;;
85243;SDS011;75643;56.928;41.094;2024-02-26T12:48:59;3.05;;;1.60;;
85243;SDS011;75643;56.928;41.094;2024-02-26T12:51:25;4.20;;;1.50;;
85243;SDS011;75643;56.928;41.094;2024-02-26T12:53:52;4.38;;;1.60;;
85243;SDS011;75643;56.928;41.094;2024-02-26T12:56:22;3.05;;;2.03;;
85243;SDS011;75643;56.928;41.094;2024-02-26T12:58:51;2.33;;;0.85;;
85243;SDS011;75643;56.928;41.094;2024-02-26T13:01:19;3.10;;;1.42;;
85243;SDS011;75643;56.928;41.094;2024-02-26T13:03:49;3.05;;;1.67;;
85243;SDS011;75643;56.928;41.094;2024-02-26T13:06:17;5.80;;;2.03;;
85243;SDS011;75643;56.928;41.094;2024-02-26T13:08:45;2.75;;;1.52;;
85243;SDS011;75643;56.928;41.094;2024-02-26T13:11:12;3.00;;;1.52;;
85243;SDS011;75643;56.928;41.094;2024-02-26T13:13:39;2.97;;;1.48;;
85243;SDS011;75643;56.928;41.094;2024-02-26T13:16:06;3.40;;;1.20;;
85243;SDS011;75643;56.928;41.094;2024-02-26T13:18:34;3.30;;;0.95;;
85243;SDS011;75643;56.928;41.094;2024-02-26T13:21:10;2.97;;;1.65;;
85243;SDS011;75643;56.928;41.094;2024-02-26T13:23:40;2.30;;;1.20;;
85243;SDS011;75643;56.928;41.094;2024-02-26T13:26:11;1.52;;;1.08;;
85243;SDS011;75643;56.928;41.094;2024-02-26T13:28:39;2.70;;;1.60;;
85243;SDS011;75643;56.928;41.094;2024-02-26T13:31:05;4.45;;;0.90;;
85243;SDS011;75643;56.928;41.094;2024-02-26T13:33:33;3.15;;;1.65;;
85243;SDS011;75643;56.928;41.094;2024-02-26T13:36:00;3.13;;;1.40;;
85243;SDS011;75643;56.928;41.094;2024-02-26T13:38:27;3.92;;;1.10;;
85243;SDS011;75643;56.928;41.094;2024-02-26T13:40:55;3.90;;;1.35;;
85243;SDS011;75643;56.928;41.094;2024-02-26T13:43:23;1.42;;;0.90;;
85243;SDS011;75643;56.928;41.094;2024-02-26T13:45:49;3.05;;;1.40;;
85243;SDS011;75643;56.928;41.094;2024-02-26T13:48:16;3.13;;;1.58;;
85243;SDS011;75643;56.928;41.094;2024-02-26T13:50:42;3.20;;;1.65;;
85243;SDS011;75643;56.928;41.094;2024-02-26T13:53:11;2.95;;;1.17;;
85243;SDS011;75643;56.928;41.094;2024-02-26T13:55:38;3.78;;;1.10;;
85243;SDS011;75643;56.928;41.094;2024-02-26T13:58:08;2.58;;;1.08;;
85243;SDS011;75643;56.928;41.094;2024-02-26T14:00:37;3.08;;;1.20;;
85243;SDS011;75643;56.928;41.094;2024-02-26T14:05:33;4.32;;;1.63;;
85243;SDS011;75643;56.928;41.094;2024-02-26T14:07:59;2.13;;;1.10;;
85243;SDS011;75643;56.928;41.094;2024-02-26T14:10:25;2.88;;;1.40;;
85243;SDS011;75643;56.928;41.094;2024-02-26T14:12:52;3.03;;;1.30;;
85243;SDS011;75643;56.928;41.094;2024-02-26T14:15:20;5.90;;;2.03;;
85243;SDS011;75643;56.928;41.094;2024-02-26T14:17:46;3.70;;;1.55;;
85243;SDS011;75643;56.928;41.094;2024-02-26T14:20:19;4.03;;;1.63;;
85243;SDS011;75643;56.928;41.094;2024-02-26T14:22:49;2.30;;;1.17;;
85243;SDS011;75643;56.928;41.094;2024-02-26T14:25:18;3.13;;;1.70;;
85243;SDS011;75643;56.928;41.094;2024-02-26T14:27:45;4.38;;;1.63;;
85243;SDS011;75643;56.928;41.094;2024-02-26T14:30:12;4.10;;;1.52;;
85243;SDS011;75643;56.928;41.094;2024-02-26T14:32:40;2.60;;;1.58;;
85243;SDS011;75643;56.928;41.094;2024-02-26T14:35:06;3.80;;;1.50;;
85243;SDS011;75643;56.928;41.094;2024-02-26T14:37:36;6.57;;;2.28;;
85243;SDS011;75643;56.928;41.094;2024-02-26T14:40:06;2.67;;;1.95;;
85243;SDS011;75643;56.928;41.094;2024-02-26T14:42:34;4.25;;;1.60;;
85243;SDS011;75643;56.928;41.094;2024-02-26T14:45:00;2.25;;;1.77;;